X  Close Metar Aviation Weather Data        EGLF Farnborough
Temperature
8°C Temperature
-2°C Dewpoint
50% Humidity



Wind
6 MPH
9 KM/H
3 M/S
5 KTS



180°
S
Current Conditions

Mostly Clear Mostly Clear
Pressure 1016 (hPa) - 30.01 (inHg)
Visibility 30 (mile) - 48 (km)
Airport
Airport-code EGLF

Location: Farnborough
Distance: 5 (mi)

Metar:
METAR EGLF 071950Z AUTO 18005KT 9999 NCD 08/M02 Q1016

Time: 07-05-2021 20:50 BST